Terminal Aerodrome Forecast
Issued by NWS Mt. Holly, NJ

Current Version | Previous Version | Text Only | Print | Product List | Glossary On
Versions: 1 2 3 4 5 6 7 8 9 10 11 12 13 14 15 16 17 18 19 20 21 22 23 24 25 26
000
FTUS41 KPHI 061440 AAA
TAFPHL
TAF AMD
KPHL 061440Z 0615/0718 13006KT P6SM BKN030
      TEMPO 0615/0617 SCT030 BKN050
     FM061700 13008KT P6SM VCSH BKN050
      TEMPO 0621/0624 3SM TSRA OVC040CB
     FM070200 14006KT P6SM SCT050 BKN150
     FM070700 16005KT 4SM BR BKN008
     FM071300 22008KT P6SM SCT050=

USA.gov is the U.S. government's official web portal to all federal, state and local government web resources and services.